Lacrosse, WA

11:45 AM PDT on July 25, 2016 (GMT -0700)
APRSWXNET | | Change Station

Elev 679 ft 46.67 °N, 117.75 °W | Updated 25 minutes ago

Clear
Clear
89 °F
Feels Like 86 °F
N
3
Wind Variable Wind from WSW
Gusts 6.0 mph

Today
High -- | Low -- °F
--% Chance of Precip.
Yesterday
High -- | Low -- °F
Precip. -- in
Pressure 30.03 in
Visibility 10.0 miles
Clouds Clear
Heat Index 86 °F
Dew Point 49 °F
Humidity 25%
Rainfall in
Snow Depth Not available.
5:23 AM 8:31 PM
Waning Gibbous, 63% visible
METAR KPUW 251753Z AUTO 29005KT 10SM CLR 28/10 A3007 RMK AO2 SLP168 T02830100 10289 20100 57001
Pressure 30.03 in
Visibility 10.0 miles
Clouds Clear
Heat Index 86 °F
Dew Point 49 °F
Humidity 25%
Rainfall in
Snow Depth Not available.
5:23 AM 8:31 PM
Waning Gibbous, 63% visible
METAR KPUW 251753Z AUTO 29005KT 10SM CLR 28/10 A3007 RMK AO2 SLP168 T02830100 10289 20100 57001

10-Day Weather Forecast

Almanac

Astronomy

Jul. 25, 2016 Rise Set
Actual Time
Civil Twilight
Nautical Twilight
Astronomical Twilight
Moon
Length of Visible Light
Length of Day
Tomorrow will be .
, % of the Moon is Illuminated

Today's Extremes

State Highs State Lows

Community

WunderPhotos

Upload Photos

1,927,370 photos uploaded!

WunderBlog® & News

Nearby

Air Quality

  Air Quality AQ Index Pollutant
Not available.

Snow Depth

Station Depth Elevation

Earthquake Activity

City Distance Mag. Time & Date
Minimum magnitude displayed is 2.5.

Coastal Water Temperatures

Place Temperature

Stations

Nearby Weather Stations

Station Location Temp. Windchill Dew Point Humidity Wind Precip. Elev Updated Type
                   

Watches & Warnings

There are currently no watches in effect.